sensor_id;sensor_type;location;lat;lon;timestamp;pressure;altitude;pressure_sealevel;temperature
56286;BMP180;42191;47.562;9.686;2023-10-13T00:00:26;97120.00;;;21.60
56286;BMP180;42191;47.562;9.686;2023-10-13T00:02:56;97127.00;;;21.60
56286;BMP180;42191;47.562;9.686;2023-10-13T00:05:29;97119.00;;;21.50
56286;BMP180;42191;47.562;9.686;2023-10-13T00:07:57;97113.00;;;21.50
56286;BMP180;42191;47.562;9.686;2023-10-13T00:10:27;97120.00;;;21.40
56286;BMP180;42191;47.562;9.686;2023-10-13T00:12:54;97123.00;;;21.30
56286;BMP180;42191;47.562;9.686;2023-10-13T00:15:20;97123.00;;;21.30
56286;BMP180;42191;47.562;9.686;2023-10-13T00:17:54;97125.00;;;21.20
56286;BMP180;42191;47.562;9.686;2023-10-13T00:20:21;97122.00;;;21.20
56286;BMP180;42191;47.562;9.686;2023-10-13T00:23:01;97115.00;;;21.10
56286;BMP180;42191;47.562;9.686;2023-10-13T00:25:27;97125.00;;;21.10
56286;BMP180;42191;47.562;9.686;2023-10-13T00:27:57;97119.00;;;21.00
56286;BMP180;42191;47.562;9.686;2023-10-13T00:30:24;97110.00;;;21.00
56286;BMP180;42191;47.562;9.686;2023-10-13T00:32:59;97117.00;;;20.90
56286;BMP180;42191;47.562;9.686;2023-10-13T00:35:29;97104.00;;;20.90
56286;BMP180;42191;47.562;9.686;2023-10-13T00:38:03;97109.00;;;20.80
56286;BMP180;42191;47.562;9.686;2023-10-13T00:40:43;97105.00;;;20.80
56286;BMP180;42191;47.562;9.686;2023-10-13T00:43:20;97100.00;;;20.70
56286;BMP180;42191;47.562;9.686;2023-10-13T00:45:52;97101.00;;;20.70
56286;BMP180;42191;47.562;9.686;2023-10-13T00:48:40;97101.00;;;20.70
56286;BMP180;42191;47.562;9.686;2023-10-13T00:51:12;97092.00;;;20.60
56286;BMP180;42191;47.562;9.686;2023-10-13T00:53:48;97098.00;;;20.60
56286;BMP180;42191;47.562;9.686;2023-10-13T00:56:15;97091.00;;;20.60
56286;BMP180;42191;47.562;9.686;2023-10-13T00:58:53;97104.00;;;20.60
56286;BMP180;42191;47.562;9.686;2023-10-13T01:01:20;97099.00;;;20.60
56286;BMP180;42191;47.562;9.686;2023-10-13T01:03:56;97103.00;;;20.60
56286;BMP180;42191;47.562;9.686;2023-10-13T01:06:27;97101.00;;;20.60
56286;BMP180;42191;47.562;9.686;2023-10-13T01:09:02;97103.00;;;20.60
56286;BMP180;42191;47.562;9.686;2023-10-13T01:11:41;97100.00;;;20.60
56286;BMP180;42191;47.562;9.686;2023-10-13T01:14:14;97105.00;;;20.60
56286;BMP180;42191;47.562;9.686;2023-10-13T01:16:45;97096.00;;;20.50
56286;BMP180;42191;47.562;9.686;2023-10-13T01:19:15;97099.00;;;20.50
56286;BMP180;42191;47.562;9.686;2023-10-13T01:21:48;97092.00;;;20.50
56286;BMP180;42191;47.562;9.686;2023-10-13T01:24:15;97094.00;;;20.40
56286;BMP180;42191;47.562;9.686;2023-10-13T01:26:46;97091.00;;;20.40
56286;BMP180;42191;47.562;9.686;2023-10-13T01:29:17;97097.00;;;20.40
56286;BMP180;42191;47.562;9.686;2023-10-13T01:31:45;97078.00;;;20.30
56286;BMP180;42191;47.562;9.686;2023-10-13T01:34:13;97083.00;;;20.30
56286;BMP180;42191;47.562;9.686;2023-10-13T01:36:45;97088.00;;;20.30
56286;BMP180;42191;47.562;9.686;2023-10-13T01:39:11;97099.00;;;20.20
56286;BMP180;42191;47.562;9.686;2023-10-13T01:41:42;97085.00;;;20.10
56286;BMP180;42191;47.562;9.686;2023-10-13T01:44:09;97084.00;;;20.10
56286;BMP180;42191;47.562;9.686;2023-10-13T01:46:40;97081.00;;;20.10
56286;BMP180;42191;47.562;9.686;2023-10-13T01:49:08;97078.00;;;20.00
56286;BMP180;42191;47.562;9.686;2023-10-13T01:51:34;97083.00;;;20.00
56286;BMP180;42191;47.562;9.686;2023-10-13T01:54:00;97074.00;;;20.00
56286;BMP180;42191;47.562;9.686;2023-10-13T01:56:30;97085.00;;;20.00
56286;BMP180;42191;47.562;9.686;2023-10-13T01:58:57;97082.00;;;20.00
56286;BMP180;42191;47.562;9.686;2023-10-13T02:01:23;97077.00;;;19.90
56286;BMP180;42191;47.562;9.686;2023-10-13T02:03:58;97079.00;;;19.90
56286;BMP180;42191;47.562;9.686;2023-10-13T02:06:29;97072.00;;;19.90
56286;BMP180;42191;47.562;9.686;2023-10-13T02:09:02;97080.00;;;19.90
56286;BMP180;42191;47.562;9.686;2023-10-13T02:11:40;97070.00;;;19.80
56286;BMP180;42191;47.562;9.686;2023-10-13T02:14:07;97068.00;;;19.80
56286;BMP180;42191;47.562;9.686;2023-10-13T02:16:38;97067.00;;;19.80
56286;BMP180;42191;47.562;9.686;2023-10-13T02:19:04;97069.00;;;19.80
56286;BMP180;42191;47.562;9.686;2023-10-13T02:21:31;97064.00;;;19.80
56286;BMP180;42191;47.562;9.686;2023-10-13T02:24:01;97068.00;;;19.80
56286;BMP180;42191;47.562;9.686;2023-10-13T02:26:32;97065.00;;;19.70
56286;BMP180;42191;47.562;9.686;2023-10-13T02:29:04;97058.00;;;19.70
56286;BMP180;42191;47.562;9.686;2023-10-13T02:31:37;97060.00;;;19.70
56286;BMP180;42191;47.562;9.686;2023-10-13T02:34:04;97067.00;;;19.70
56286;BMP180;42191;47.562;9.686;2023-10-13T02:36:43;97050.00;;;19.70
56286;BMP180;42191;47.562;9.686;2023-10-13T02:39:16;97056.00;;;19.70
56286;BMP180;42191;47.562;9.686;2023-10-13T02:41:43;97052.00;;;19.70
56286;BMP180;42191;47.562;9.686;2023-10-13T02:44:14;97060.00;;;19.70
56286;BMP180;42191;47.562;9.686;2023-10-13T02:47:06;97064.00;;;19.60
56286;BMP180;42191;47.562;9.686;2023-10-13T02:49:40;97054.00;;;19.60
56286;BMP180;42191;47.562;9.686;2023-10-13T02:52:12;97064.00;;;19.60
56286;BMP180;42191;47.562;9.686;2023-10-13T02:54:39;97059.00;;;19.60
56286;BMP180;42191;47.562;9.686;2023-10-13T02:57:08;97063.00;;;19.60
56286;BMP180;42191;47.562;9.686;2023-10-13T02:59:34;97060.00;;;19.60
56286;BMP180;42191;47.562;9.686;2023-10-13T03:02:04;97043.00;;;19.60
56286;BMP180;42191;47.562;9.686;2023-10-13T03:04:39;97056.00;;;19.60
56286;BMP180;42191;47.562;9.686;2023-10-13T03:07:05;97048.00;;;19.60
56286;BMP180;42191;47.562;9.686;2023-10-13T03:09:31;97052.00;;;19.50
56286;BMP180;42191;47.562;9.686;2023-10-13T03:12:03;97047.00;;;19.50
56286;BMP180;42191;47.562;9.686;2023-10-13T03:14:34;97046.00;;;19.50
56286;BMP180;42191;47.562;9.686;2023-10-13T03:17:03;97044.00;;;19.40
56286;BMP180;42191;47.562;9.686;2023-10-13T03:19:35;97046.00;;;19.50
56286;BMP180;42191;47.562;9.686;2023-10-13T03:22:08;97059.00;;;19.40
56286;BMP180;42191;47.562;9.686;2023-10-13T03:24:40;97062.00;;;19.40
56286;BMP180;42191;47.562;9.686;2023-10-13T03:27:18;97049.00;;;19.40
56286;BMP180;42191;47.562;9.686;2023-10-13T03:29:49;97059.00;;;19.40
56286;BMP180;42191;47.562;9.686;2023-10-13T03:32:20;97057.00;;;19.40
56286;BMP180;42191;47.562;9.686;2023-10-13T03:34:47;97056.00;;;19.40
56286;BMP180;42191;47.562;9.686;2023-10-13T03:37:20;97056.00;;;19.40
56286;BMP180;42191;47.562;9.686;2023-10-13T03:40:11;97060.00;;;19.40
56286;BMP180;42191;47.562;9.686;2023-10-13T03:42:50;97051.00;;;19.30
56286;BMP180;42191;47.562;9.686;2023-10-13T03:45:37;97054.00;;;19.30
56286;BMP180;42191;47.562;9.686;2023-10-13T03:48:06;97052.00;;;19.30
56286;BMP180;42191;47.562;9.686;2023-10-13T03:50:39;97045.00;;;19.30
56286;BMP180;42191;47.562;9.686;2023-10-13T03:53:27;97049.00;;;19.20
56286;BMP180;42191;47.562;9.686;2023-10-13T03:56:00;97044.00;;;19.20
56286;BMP180;42191;47.562;9.686;2023-10-13T03:58:38;97037.00;;;19.20
56286;BMP180;42191;47.562;9.686;2023-10-13T04:01:05;97036.00;;;19.20
56286;BMP180;42191;47.562;9.686;2023-10-13T04:03:32;97029.00;;;19.20
56286;BMP180;42191;47.562;9.686;2023-10-13T04:06:05;97041.00;;;19.20
56286;BMP180;42191;47.562;9.686;2023-10-13T04:08:41;97033.00;;;19.20
56286;BMP180;42191;47.562;9.686;2023-10-13T04:11:08;97035.00;;;19.20
56286;BMP180;42191;47.562;9.686;2023-10-13T04:13:52;97026.00;;;19.20
56286;BMP180;42191;47.562;9.686;2023-10-13T04:16:54;97027.00;;;19.20
56286;BMP180;42191;47.562;9.686;2023-10-13T04:19:20;97030.00;;;19.20
56286;BMP180;42191;47.562;9.686;2023-10-13T04:21:50;97030.00;;;19.20
56286;BMP180;42191;47.562;9.686;2023-10-13T04:24:26;97015.00;;;19.20
56286;BMP180;42191;47.562;9.686;2023-10-13T04:27:11;97025.00;;;19.20
56286;BMP180;42191;47.562;9.686;2023-10-13T04:29:38;97018.00;;;19.20
56286;BMP180;42191;47.562;9.686;2023-10-13T04:32:22;97019.00;;;19.20
56286;BMP180;42191;47.562;9.686;2023-10-13T04:34:59;97023.00;;;19.20
56286;BMP180;42191;47.562;9.686;2023-10-13T04:37:36;97027.00;;;19.20
56286;BMP180;42191;47.562;9.686;2023-10-13T04:40:21;97022.00;;;19.20
56286;BMP180;42191;47.562;9.686;2023-10-13T04:43:01;97015.00;;;19.20
56286;BMP180;42191;47.562;9.686;2023-10-13T04:45:42;97014.00;;;19.20
56286;BMP180;42191;47.562;9.686;2023-10-13T04:48:20;97006.00;;;19.20
56286;BMP180;42191;47.562;9.686;2023-10-13T04:50:49;97001.00;;;19.20
56286;BMP180;42191;47.562;9.686;2023-10-13T04:53:41;97001.00;;;19.20
56286;BMP180;42191;47.562;9.686;2023-10-13T04:56:28;96992.00;;;19.20
56286;BMP180;42191;47.562;9.686;2023-10-13T04:59:12;96989.00;;;19.20
56286;BMP180;42191;47.562;9.686;2023-10-13T05:01:43;96986.00;;;19.20
56286;BMP180;42191;47.562;9.686;2023-10-13T05:04:28;96999.00;;;19.20
56286;BMP180;42191;47.562;9.686;2023-10-13T05:07:14;96999.00;;;19.30
56286;BMP180;42191;47.562;9.686;2023-10-13T05:09:59;96997.00;;;19.20
56286;BMP180;42191;47.562;9.686;2023-10-13T05:12:44;97001.00;;;19.20
56286;BMP180;42191;47.562;9.686;2023-10-13T05:15:29;96993.00;;;19.20
56286;BMP180;42191;47.562;9.686;2023-10-13T05:18:13;96992.00;;;19.20
56286;BMP180;42191;47.562;9.686;2023-10-13T05:20:58;96996.00;;;19.20
56286;BMP180;42191;47.562;9.686;2023-10-13T05:23:42;97001.00;;;19.20
56286;BMP180;42191;47.562;9.686;2023-10-13T05:26:28;97002.00;;;19.20
56286;BMP180;42191;47.562;9.686;2023-10-13T05:29:13;97001.00;;;19.20
56286;BMP180;42191;47.562;9.686;2023-10-13T05:31:57;97004.00;;;19.20
56286;BMP180;42191;47.562;9.686;2023-10-13T05:34:42;97001.00;;;19.20
56286;BMP180;42191;47.562;9.686;2023-10-13T05:37:26;96999.00;;;19.10
56286;BMP180;42191;47.562;9.686;2023-10-13T05:40:11;97013.00;;;19.10
56286;BMP180;42191;47.562;9.686;2023-10-13T05:42:56;97007.00;;;19.10
56286;BMP180;42191;47.562;9.686;2023-10-13T05:45:40;97004.00;;;19.10
56286;BMP180;42191;47.562;9.686;2023-10-13T05:48:26;97017.00;;;19.10
56286;BMP180;42191;47.562;9.686;2023-10-13T05:51:11;97017.00;;;19.10
56286;BMP180;42191;47.562;9.686;2023-10-13T05:53:55;97015.00;;;19.10
56286;BMP180;42191;47.562;9.686;2023-10-13T05:56:50;97010.00;;;19.10
56286;BMP180;42191;47.562;9.686;2023-10-13T05:59:36;97018.00;;;19.10
56286;BMP180;42191;47.562;9.686;2023-10-13T06:02:23;97022.00;;;19.10
56286;BMP180;42191;47.562;9.686;2023-10-13T06:05:09;97015.00;;;19.10
56286;BMP180;42191;47.562;9.686;2023-10-13T06:07:55;97007.00;;;19.20
56286;BMP180;42191;47.562;9.686;2023-10-13T06:10:40;97010.00;;;19.20
56286;BMP180;42191;47.562;9.686;2023-10-13T06:13:25;97007.00;;;19.20
56286;BMP180;42191;47.562;9.686;2023-10-13T06:16:13;97016.00;;;19.20
56286;BMP180;42191;47.562;9.686;2023-10-13T06:18:59;97017.00;;;19.30
56286;BMP180;42191;47.562;9.686;2023-10-13T06:21:44;97024.00;;;19.30
56286;BMP180;42191;47.562;9.686;2023-10-13T06:24:30;97017.00;;;19.40
56286;BMP180;42191;47.562;9.686;2023-10-13T06:27:15;97015.00;;;19.40
56286;BMP180;42191;47.562;9.686;2023-10-13T06:30:00;97021.00;;;19.40
56286;BMP180;42191;47.562;9.686;2023-10-13T06:32:27;97011.00;;;19.50
56286;BMP180;42191;47.562;9.686;2023-10-13T06:34:54;97006.00;;;19.50
56286;BMP180;42191;47.562;9.686;2023-10-13T06:37:32;97007.00;;;19.50
56286;BMP180;42191;47.562;9.686;2023-10-13T06:40:03;97011.00;;;19.50
56286;BMP180;42191;47.562;9.686;2023-10-13T06:42:48;97017.00;;;19.60
56286;BMP180;42191;47.562;9.686;2023-10-13T06:45:14;97011.00;;;19.60
56286;BMP180;42191;47.562;9.686;2023-10-13T06:47:43;97026.00;;;19.70
56286;BMP180;42191;47.562;9.686;2023-10-13T06:50:18;97015.00;;;19.70
56286;BMP180;42191;47.562;9.686;2023-10-13T06:52:50;97023.00;;;19.80
56286;BMP180;42191;47.562;9.686;2023-10-13T06:55:20;97028.00;;;19.80
56286;BMP180;42191;47.562;9.686;2023-10-13T06:57:55;97018.00;;;19.90
56286;BMP180;42191;47.562;9.686;2023-10-13T07:00:26;97020.00;;;19.90
56286;BMP180;42191;47.562;9.686;2023-10-13T07:02:59;97017.00;;;20.00
56286;BMP180;42191;47.562;9.686;2023-10-13T07:05:51;97015.00;;;20.00
56286;BMP180;42191;47.562;9.686;2023-10-13T07:08:18;97015.00;;;20.00
56286;BMP180;42191;47.562;9.686;2023-10-13T07:10:54;97024.00;;;20.10
56286;BMP180;42191;47.562;9.686;2023-10-13T07:13:31;97019.00;;;20.10
56286;BMP180;42191;47.562;9.686;2023-10-13T07:16:02;97027.00;;;20.20
56286;BMP180;42191;47.562;9.686;2023-10-13T07:18:35;97020.00;;;20.20
56286;BMP180;42191;47.562;9.686;2023-10-13T07:21:11;97024.00;;;20.30
56286;BMP180;42191;47.562;9.686;2023-10-13T07:23:38;97031.00;;;20.40
56286;BMP180;42191;47.562;9.686;2023-10-13T07:26:05;97038.00;;;20.50
56286;BMP180;42191;47.562;9.686;2023-10-13T07:28:34;97035.00;;;20.50
56286;BMP180;42191;47.562;9.686;2023-10-13T07:31:12;97032.00;;;20.60
56286;BMP180;42191;47.562;9.686;2023-10-13T07:33:40;97036.00;;;20.60
56286;BMP180;42191;47.562;9.686;2023-10-13T07:36:08;97030.00;;;20.70
56286;BMP180;42191;47.562;9.686;2023-10-13T07:38:54;97033.00;;;20.70
56286;BMP180;42191;47.562;9.686;2023-10-13T07:41:36;97027.00;;;20.80
56286;BMP180;42191;47.562;9.686;2023-10-13T07:44:03;97032.00;;;20.80
56286;BMP180;42191;47.562;9.686;2023-10-13T07:46:30;97037.00;;;20.90
56286;BMP180;42191;47.562;9.686;2023-10-13T07:48:59;97028.00;;;20.90
56286;BMP180;42191;47.562;9.686;2023-10-13T07:51:40;97028.00;;;21.00
56286;BMP180;42191;47.562;9.686;2023-10-13T07:54:17;97035.00;;;21.10
56286;BMP180;42191;47.562;9.686;2023-10-13T07:56:49;97024.00;;;21.10
56286;BMP180;42191;47.562;9.686;2023-10-13T07:59:16;97028.00;;;21.20
56286;BMP180;42191;47.562;9.686;2023-10-13T08:01:42;97027.00;;;21.20
56286;BMP180;42191;47.562;9.686;2023-10-13T08:04:09;97025.00;;;21.30
56286;BMP180;42191;47.562;9.686;2023-10-13T08:06:38;97029.00;;;21.40
56286;BMP180;42191;47.562;9.686;2023-10-13T08:09:09;97017.00;;;21.40
56286;BMP180;42191;47.562;9.686;2023-10-13T08:11:54;97012.00;;;21.50
56286;BMP180;42191;47.562;9.686;2023-10-13T08:14:21;97017.00;;;21.50
56286;BMP180;42191;47.562;9.686;2023-10-13T08:16:54;97013.00;;;21.60
56286;BMP180;42191;47.562;9.686;2023-10-13T08:19:22;97012.00;;;21.70
56286;BMP180;42191;47.562;9.686;2023-10-13T08:22:05;97018.00;;;21.70
56286;BMP180;42191;47.562;9.686;2023-10-13T08:24:51;97008.00;;;21.80
56286;BMP180;42191;47.562;9.686;2023-10-13T08:27:20;97016.00;;;21.80
56286;BMP180;42191;47.562;9.686;2023-10-13T08:30:00;97013.00;;;21.90
56286;BMP180;42191;47.562;9.686;2023-10-13T08:32:45;97029.00;;;22.00
56286;BMP180;42191;47.562;9.686;2023-10-13T08:35:21;97015.00;;;22.00
56286;BMP180;42191;47.562;9.686;2023-10-13T08:37:56;97010.00;;;22.10
56286;BMP180;42191;47.562;9.686;2023-10-13T08:40:27;97010.00;;;22.10
56286;BMP180;42191;47.562;9.686;2023-10-13T08:43:12;97008.00;;;22.20
56286;BMP180;42191;47.562;9.686;2023-10-13T08:45:42;96998.00;;;22.30
56286;BMP180;42191;47.562;9.686;2023-10-13T08:48:10;96997.00;;;22.40
56286;BMP180;42191;47.562;9.686;2023-10-13T08:56:07;97004.00;;;22.50
56286;BMP180;42191;47.562;9.686;2023-10-13T08:58:44;97000.00;;;22.60
56286;BMP180;42191;47.562;9.686;2023-10-13T09:01:38;97003.00;;;22.70
56286;BMP180;42191;47.562;9.686;2023-10-13T09:04:18;96993.00;;;22.70
56286;BMP180;42191;47.562;9.686;2023-10-13T09:06:46;96996.00;;;22.80
56286;BMP180;42191;47.562;9.686;2023-10-13T09:09:46;96990.00;;;22.90
56286;BMP180;42191;47.562;9.686;2023-10-13T09:12:16;96990.00;;;22.90
56286;BMP180;42191;47.562;9.686;2023-10-13T09:14:54;96988.00;;;23.00
56286;BMP180;42191;47.562;9.686;2023-10-13T09:17:26;97003.00;;;23.10
56286;BMP180;42191;47.562;9.686;2023-10-13T09:20:06;96982.00;;;23.10
56286;BMP180;42191;47.562;9.686;2023-10-13T09:22:54;96985.00;;;23.20
56286;BMP180;42191;47.562;9.686;2023-10-13T09:25:39;96996.00;;;23.20
56286;BMP180;42191;47.562;9.686;2023-10-13T09:28:20;96984.00;;;23.30
56286;BMP180;42191;47.562;9.686;2023-10-13T09:30:52;96982.00;;;23.30
56286;BMP180;42191;47.562;9.686;2023-10-13T09:33:24;96979.00;;;23.40
56286;BMP180;42191;47.562;9.686;2023-10-13T09:36:05;96979.00;;;23.40
56286;BMP180;42191;47.562;9.686;2023-10-13T09:38:36;96978.00;;;23.50
56286;BMP180;42191;47.562;9.686;2023-10-13T09:41:07;96977.00;;;23.50
56286;BMP180;42191;47.562;9.686;2023-10-13T09:43:52;96972.00;;;23.60
56286;BMP180;42191;47.562;9.686;2023-10-13T09:46:21;96968.00;;;23.60
56286;BMP180;42191;47.562;9.686;2023-10-13T09:49:12;96969.00;;;23.60
56286;BMP180;42191;47.562;9.686;2023-10-13T09:51:49;96966.00;;;23.70
56286;BMP180;42191;47.562;9.686;2023-10-13T09:57:06;96962.00;;;23.80
56286;BMP180;42191;47.562;9.686;2023-10-13T09:59:44;96958.00;;;23.80
56286;BMP180;42191;47.562;9.686;2023-10-13T10:02:18;96968.00;;;23.90
56286;BMP180;42191;47.562;9.686;2023-10-13T10:05:06;96962.00;;;23.90
56286;BMP180;42191;47.562;9.686;2023-10-13T10:07:57;96956.00;;;23.90
56286;BMP180;42191;47.562;9.686;2023-10-13T10:14:07;96955.00;;;23.90
56286;BMP180;42191;47.562;9.686;2023-10-13T10:16:56;96949.00;;;24.00
56286;BMP180;42191;47.562;9.686;2023-10-13T10:19:27;96940.00;;;24.00
56286;BMP180;42191;47.562;9.686;2023-10-13T10:22:04;96937.00;;;24.00
56286;BMP180;42191;47.562;9.686;2023-10-13T10:24:43;96941.00;;;24.10
56286;BMP180;42191;47.562;9.686;2023-10-13T10:27:10;96936.00;;;24.20
56286;BMP180;42191;47.562;9.686;2023-10-13T10:29:52;96928.00;;;24.20
56286;BMP180;42191;47.562;9.686;2023-10-13T10:32:18;96928.00;;;24.30
56286;BMP180;42191;47.562;9.686;2023-10-13T10:34:45;96929.00;;;24.30
56286;BMP180;42191;47.562;9.686;2023-10-13T10:37:12;96922.00;;;24.40
56286;BMP180;42191;47.562;9.686;2023-10-13T10:39:38;96919.00;;;24.40
56286;BMP180;42191;47.562;9.686;2023-10-13T10:42:15;96918.00;;;24.50
56286;BMP180;42191;47.562;9.686;2023-10-13T10:44:43;96908.00;;;24.50
56286;BMP180;42191;47.562;9.686;2023-10-13T10:47:14;96909.00;;;24.60
56286;BMP180;42191;47.562;9.686;2023-10-13T10:50:02;96895.00;;;24.60
56286;BMP180;42191;47.562;9.686;2023-10-13T10:52:45;96899.00;;;24.70
56286;BMP180;42191;47.562;9.686;2023-10-13T10:55:12;96899.00;;;24.70
56286;BMP180;42191;47.562;9.686;2023-10-13T10:57:46;96889.00;;;24.80
56286;BMP180;42191;47.562;9.686;2023-10-13T11:00:21;96883.00;;;24.80
56286;BMP180;42191;47.562;9.686;2023-10-13T11:02:57;96878.00;;;24.90
56286;BMP180;42191;47.562;9.686;2023-10-13T11:05:24;96873.00;;;24.90
56286;BMP180;42191;47.562;9.686;2023-10-13T11:07:58;96876.00;;;25.00
56286;BMP180;42191;47.562;9.686;2023-10-13T11:10:24;96877.00;;;25.00
56286;BMP180;42191;47.562;9.686;2023-10-13T11:12:57;96874.00;;;25.10
56286;BMP180;42191;47.562;9.686;2023-10-13T11:15:48;96869.00;;;25.10
56286;BMP180;42191;47.562;9.686;2023-10-13T11:18:14;96857.00;;;25.20
56286;BMP180;42191;47.562;9.686;2023-10-13T11:20:47;96854.00;;;25.20
56286;BMP180;42191;47.562;9.686;2023-10-13T11:23:20;96842.00;;;25.20
56286;BMP180;42191;47.562;9.686;2023-10-13T11:25:57;96847.00;;;25.30
56286;BMP180;42191;47.562;9.686;2023-10-13T11:28:25;96845.00;;;25.30
56286;BMP180;42191;47.562;9.686;2023-10-13T11:30:57;96844.00;;;25.40
56286;BMP180;42191;47.562;9.686;2023-10-13T11:33:36;96839.00;;;25.40
56286;BMP180;42191;47.562;9.686;2023-10-13T11:36:12;96839.00;;;25.40
56286;BMP180;42191;47.562;9.686;2023-10-13T11:38:43;96840.00;;;25.40
56286;BMP180;42191;47.562;9.686;2023-10-13T11:41:16;96823.00;;;25.50
56286;BMP180;42191;47.562;9.686;2023-10-13T11:46:25;96828.00;;;25.60
56286;BMP180;42191;47.562;9.686;2023-10-13T11:49:08;96823.00;;;25.60
56286;BMP180;42191;47.562;9.686;2023-10-13T11:51:40;96816.00;;;25.60
56286;BMP180;42191;47.562;9.686;2023-10-13T11:54:13;96818.00;;;25.70
56286;BMP180;42191;47.562;9.686;2023-10-13T11:56:47;96821.00;;;25.70
56286;BMP180;42191;47.562;9.686;2023-10-13T11:59:14;96811.00;;;25.70
56286;BMP180;42191;47.562;9.686;2023-10-13T12:01:45;96813.00;;;25.80
56286;BMP180;42191;47.562;9.686;2023-10-13T12:04:29;96803.00;;;25.80
56286;BMP180;42191;47.562;9.686;2023-10-13T12:07:15;96805.00;;;25.90
56286;BMP180;42191;47.562;9.686;2023-10-13T12:10:06;96791.00;;;25.90
56286;BMP180;42191;47.562;9.686;2023-10-13T12:12:41;96788.00;;;26.00
56286;BMP180;42191;47.562;9.686;2023-10-13T12:15:09;96786.00;;;26.10
56286;BMP180;42191;47.562;9.686;2023-10-13T12:17:36;96773.00;;;26.10
56286;BMP180;42191;47.562;9.686;2023-10-13T12:20:06;96778.00;;;26.10
56286;BMP180;42191;47.562;9.686;2023-10-13T12:22:36;96764.00;;;26.20
56286;BMP180;42191;47.562;9.686;2023-10-13T12:25:11;96772.00;;;26.30
56286;BMP180;42191;47.562;9.686;2023-10-13T12:27:56;96769.00;;;26.30
56286;BMP180;42191;47.562;9.686;2023-10-13T12:30:24;96760.00;;;26.40
56286;BMP180;42191;47.562;9.686;2023-10-13T12:33:14;96768.00;;;26.50
56286;BMP180;42191;47.562;9.686;2023-10-13T12:35:50;96758.00;;;26.60
56286;BMP180;42191;47.562;9.686;2023-10-13T12:38:37;96753.00;;;26.70
56286;BMP180;42191;47.562;9.686;2023-10-13T12:41:13;96760.00;;;26.80
56286;BMP180;42191;47.562;9.686;2023-10-13T12:43:57;96756.00;;;26.90
56286;BMP180;42191;47.562;9.686;2023-10-13T12:46:42;96749.00;;;26.90
56286;BMP180;42191;47.562;9.686;2023-10-13T12:49:27;96749.00;;;27.00
56286;BMP180;42191;47.562;9.686;2023-10-13T12:52:11;96746.00;;;27.00
56286;BMP180;42191;47.562;9.686;2023-10-13T12:54:48;96740.00;;;27.00
56286;BMP180;42191;47.562;9.686;2023-10-13T12:57:20;96735.00;;;27.00
56286;BMP180;42191;47.562;9.686;2023-10-13T12:59:49;96746.00;;;27.10
56286;BMP180;42191;47.562;9.686;2023-10-13T13:02:15;96741.00;;;27.10
56286;BMP180;42191;47.562;9.686;2023-10-13T13:04:44;96735.00;;;27.10
56286;BMP180;42191;47.562;9.686;2023-10-13T13:07:11;96726.00;;;27.20
56286;BMP180;42191;47.562;9.686;2023-10-13T13:09:41;96715.00;;;27.20
56286;BMP180;42191;47.562;9.686;2023-10-13T13:12:07;96720.00;;;27.20
56286;BMP180;42191;47.562;9.686;2023-10-13T13:14:33;96720.00;;;27.20
56286;BMP180;42191;47.562;9.686;2023-10-13T13:17:02;96717.00;;;27.20
56286;BMP180;42191;47.562;9.686;2023-10-13T13:19:35;96726.00;;;27.20
56286;BMP180;42191;47.562;9.686;2023-10-13T13:22:05;96716.00;;;27.20
56286;BMP180;42191;47.562;9.686;2023-10-13T13:24:38;96710.00;;;27.30
56286;BMP180;42191;47.562;9.686;2023-10-13T13:27:13;96701.00;;;27.30
56286;BMP180;42191;47.562;9.686;2023-10-13T13:29:48;96698.00;;;27.40
56286;BMP180;42191;47.562;9.686;2023-10-13T13:32:14;96705.00;;;27.50
56286;BMP180;42191;47.562;9.686;2023-10-13T13:34:45;96692.00;;;27.80
56286;BMP180;42191;47.562;9.686;2023-10-13T13:37:20;96682.00;;;28.30
56286;BMP180;42191;47.562;9.686;2023-10-13T13:39:46;96686.00;;;28.90
56286;BMP180;42191;47.562;9.686;2023-10-13T13:42:13;96684.00;;;29.60
56286;BMP180;42191;47.562;9.686;2023-10-13T13:44:44;96681.00;;;30.20
56286;BMP180;42191;47.562;9.686;2023-10-13T13:47:13;96683.00;;;30.80
56286;BMP180;42191;47.562;9.686;2023-10-13T13:49:40;96682.00;;;31.40
56286;BMP180;42191;47.562;9.686;2023-10-13T13:52:09;96677.00;;;32.00
56286;BMP180;42191;47.562;9.686;2023-10-13T13:54:35;96674.00;;;32.50
56286;BMP180;42191;47.562;9.686;2023-10-13T13:57:01;96671.00;;;33.00
56286;BMP180;42191;47.562;9.686;2023-10-13T13:59:28;96668.00;;;33.50
56286;BMP180;42191;47.562;9.686;2023-10-13T14:02:00;96669.00;;;34.00
56286;BMP180;42191;47.562;9.686;2023-10-13T14:04:28;96665.00;;;34.50
56286;BMP180;42191;47.562;9.686;2023-10-13T14:06:57;96659.00;;;34.90
56286;BMP180;42191;47.562;9.686;2023-10-13T14:09:23;96659.00;;;35.30
56286;BMP180;42191;47.562;9.686;2023-10-13T14:11:59;96654.00;;;35.70
56286;BMP180;42191;47.562;9.686;2023-10-13T14:14:44;96649.00;;;36.10
56286;BMP180;42191;47.562;9.686;2023-10-13T14:17:16;96652.00;;;36.50
56286;BMP180;42191;47.562;9.686;2023-10-13T14:19:42;96661.00;;;36.80
56286;BMP180;42191;47.562;9.686;2023-10-13T14:22:11;96645.00;;;37.00
56286;BMP180;42191;47.562;9.686;2023-10-13T14:24:38;96641.00;;;37.30
56286;BMP180;42191;47.562;9.686;2023-10-13T14:27:13;96641.00;;;37.60
56286;BMP180;42191;47.562;9.686;2023-10-13T14:29:47;96633.00;;;37.80
56286;BMP180;42191;47.562;9.686;2023-10-13T14:32:14;96627.00;;;38.10
56286;BMP180;42191;47.562;9.686;2023-10-13T14:34:45;96633.00;;;38.30
56286;BMP180;42191;47.562;9.686;2023-10-13T14:37:14;96629.00;;;38.50
56286;BMP180;42191;47.562;9.686;2023-10-13T14:39:47;96627.00;;;38.70
56286;BMP180;42191;47.562;9.686;2023-10-13T14:42:13;96627.00;;;39.00
56286;BMP180;42191;47.562;9.686;2023-10-13T14:44:40;96627.00;;;39.20
56286;BMP180;42191;47.562;9.686;2023-10-13T14:47:06;96617.00;;;39.30
56286;BMP180;42191;47.562;9.686;2023-10-13T14:49:34;96627.00;;;39.50
56286;BMP180;42191;47.562;9.686;2023-10-13T14:52:01;96624.00;;;39.60
56286;BMP180;42191;47.562;9.686;2023-10-13T14:54:28;96627.00;;;39.60
56286;BMP180;42191;47.562;9.686;2023-10-13T14:57:00;96617.00;;;39.70
56286;BMP180;42191;47.562;9.686;2023-10-13T14:59:27;96623.00;;;39.80
56286;BMP180;42191;47.562;9.686;2023-10-13T15:01:53;96612.00;;;39.80
56286;BMP180;42191;47.562;9.686;2023-10-13T15:04:19;96608.00;;;39.80